Lower Kalskag, Alaska
Current Conditions -  °F | °C
As of 4:56 AM on Saturday 25 Oct 2014 (Local Time) from PALG Reporting Station
Scattered Clouds Scattered Clouds  
Wind Chill: 27°   Ceiling: Unl
Heat Index: 27°   Visibility: 10mi
Dew Point: 23°   Wind: 3mph
Humidity: 84%   Direction: NA
Pressure: 29.91"   Gusts: NA
Location:  61.52°N, 160.38°W
Report Text: PALG 251256Z AUTO VRB03KT 10SM FEW019 SCT035 SCT045 M03/M05 A2991 RMK AO2 TSNO T10271050 SLP133 $
Loading
Personal Weather Stations






























Interactive Weather Map
Tropical Storm Tracking
New forecast layout! Learn more

10-Day Weather Forecast

Advertisements
Track Severe Weather on mobile